West Cornforth, United Kingdom
Current Conditions -  °F | °C
As of 1:20 PM on Thursday 23 Oct 2014 (Local Time) from EGNV Reporting Station
Scattered Clouds Scattered Clouds  
Wind Chill: 57°   Ceiling: Unl
Heat Index: 57°   Visibility: 6mi
Dew Point: 52°   Wind: 14mph
Humidity: 82%   Direction: 180°S
Pressure: 29.88"   Gusts: NA
Location:  54.7°N, 1.52°W
Report Text: EGNV 231220Z 18012KT 9999 FEW018 SCT026 14/11 Q1012
Loading
Personal Weather Stations






























Interactive Weather Map
Tropical Storm Tracking
New forecast layout! Learn more

10-Day Weather Forecast

Advertisements
Track Severe Weather on mobile